Observation data for Memphis on 11/19/2019      Previous  Date       Current Mesonet Observations  Soil Data  Daily Summary Page  Observations in Plain Language
KMES 190600Z 33003KT 07/M01 A2994 RMK A01 T00741006  RH  058%=      5-min Rain = 0
KMES 190605Z 34004KT 07/M01 A2994 RMK A01 T00711005  RH  059%=      5-min Rain = 0
KMES 190610Z 35004KT 07/M00 A2993 RMK A01 T00711004  RH  059%=      5-min Rain = 0
KMES 190615Z 01003KT 07/M01 A2993 RMK A01 T00681012  RH  057%=      5-min Rain = 0
KMES 190620Z 00003KT 06/M02 A2993 RMK A01 T00641016  RH  057%=      5-min Rain = 0
KMES 190625Z 35003KT 07/M01 A2993 RMK A01 T00651008  RH  060%=      5-min Rain = 0
KMES 190630Z 33003KT 07/00 A2993 RMK A01 T00720000  RH  061%=      5-min Rain = 0
KMES 190635Z 33004KT 08/01 A2993 RMK A01 T00800005  RH  060%=      5-min Rain = 0
KMES 190640Z 32003KT 09/01 A2993 RMK A01 T00880007  RH  058%=      5-min Rain = 0
KMES 190645Z 33004KT 09/00 A2994 RMK A01 T00860002  RH  056%=      5-min Rain = 0
KMES 190650Z 33004KT 08/00 A2994 RMK A01 T00810003  RH  059%=      5-min Rain = 0
KMES 190655Z 32005KT 08/01 A2995 RMK A01 T00820005  RH  059%=      5-min Rain = 0
KMES 190700Z 32006KT 09/01 A2995 RMK A01 T00860006  RH  058%=      5-min Rain = 0
KMES 190705Z 32007KT 09/01 A2995 RMK A01 T00880006  RH  057%=      5-min Rain = 0
KMES 190710Z 33007KT 09/01 A2995 RMK A01 T00860005  RH  057%=      5-min Rain = 0
KMES 190715Z 32008KT 09/01 A2996 RMK A01 T00860005  RH  058%=      5-min Rain = 0
KMES 190720Z 32007KT 09/01 A2996 RMK A01 T00870007  RH  058%=      5-min Rain = 0
KMES 190725Z 32007KT 09/01 A2996 RMK A01 T00850006  RH  059%=      5-min Rain = 0
KMES 190730Z 33007KT 08/01 A2995 RMK A01 T00820007  RH  060%=      5-min Rain = 0
KMES 190735Z 34005KT 08/00 A2995 RMK A01 T00790004  RH  060%=      5-min Rain = 0
KMES 190740Z 34004KT 08/00 A2995 RMK A01 T00750004  RH  061%=      5-min Rain = 0
KMES 190745Z 33006KT 08/01 A2995 RMK A01 T00750008  RH  063%=      5-min Rain = 0
KMES 190750Z 31005KT 08/01 A2995 RMK A01 T00790011  RH  063%=      5-min Rain = 0
KMES 190755Z 33006KT 08/01 A2995 RMK A01 T00790009  RH  062%=      5-min Rain = 0
KMES 190800Z 33005KT 08/01 A2995 RMK A01 T00790008  RH  061%=      5-min Rain = 0
KMES 190805Z 34004KT 08/00 A2995 RMK A01 T00750004  RH  061%=      5-min Rain = 0
KMES 190810Z 34004KT 07/00 A2995 RMK A01 T00720004  RH  063%=      5-min Rain = 0
KMES 190815Z 36004KT 07/00 A2995 RMK A01 T00710003  RH  063%=      5-min Rain = 0
KMES 190820Z 01003KT 07/00 A2994 RMK A01 T00700004  RH  064%=      5-min Rain = 0
KMES 190825Z 01003KT 07/01 A2995 RMK A01 T00710005  RH  064%=      5-min Rain = 0
KMES 190830Z 36003KT 07/01 A2995 RMK A01 T00740008  RH  064%=      5-min Rain = 0
KMES 190835Z 00003KT 08/01 A2995 RMK A01 T00770008  RH  062%=      5-min Rain = 0
KMES 190840Z 00004KT 08/01 A2994 RMK A01 T00770007  RH  062%=      5-min Rain = 0
KMES 190845Z 00004KT 08/01 A2994 RMK A01 T00790008  RH  062%=      5-min Rain = 0
KMES 190850Z 34003KT 08/01 A2994 RMK A01 T00800009  RH  062%=      5-min Rain = 0
KMES 190855Z 33005KT 08/01 A2995 RMK A01 T00820013  RH  063%=      5-min Rain = 0
KMES 190900Z 32005KT 08/01 A2995 RMK A01 T00820013  RH  063%=      5-min Rain = 0
KMES 190905Z 32005KT 08/01 A2995 RMK A01 T00800014  RH  064%=      5-min Rain = 0
KMES 190910Z 32007KT 09/02 A2995 RMK A01 T00860016  RH  062%=      5-min Rain = 0
KMES 190915Z 33007KT 09/02 A2995 RMK A01 T00890016  RH  061%=      5-min Rain = 0
KMES 190920Z 33006KT 09/02 A2995 RMK A01 T00880015  RH  061%=      5-min Rain = 0
KMES 190925Z 33006KT 08/01 A2995 RMK A01 T00840013  RH  062%=      5-min Rain = 0
KMES 190930Z 33005KT 08/01 A2995 RMK A01 T00780011  RH  063%=      5-min Rain = 0
KMES 190935Z 33004KT 08/01 A2995 RMK A01 T00770011  RH  064%=      5-min Rain = 0
KMES 190940Z 33003KT 08/01 A2995 RMK A01 T00770013  RH  065%=      5-min Rain = 0
KMES 190945Z 33003KT 08/01 A2995 RMK A01 T00780014  RH  065%=      5-min Rain = 0
KMES 190950Z 32004KT 08/01 A2995 RMK A01 T00790014  RH  065%=      5-min Rain = 0
KMES 190955Z 32004KT 08/02 A2995 RMK A01 T00790015  RH  065%=      5-min Rain = 0
KMES 191000Z 33004KT 08/02 A2995 RMK A01 T00800015  RH  064%=      5-min Rain = 0
KMES 191005Z 32004KT 08/02 A2995 RMK A01 T00800015  RH  064%=      5-min Rain = 0
KMES 191010Z 28002KT 08/02 A2995 RMK A01 T00830018  RH  064%=      5-min Rain = 0
KMES 191015Z 25003KT 09/02 A2995 RMK A01 T00860018  RH  063%=      5-min Rain = 0
KMES 191020Z 23003KT 09/02 A2995 RMK A01 T00900018  RH  061%=      5-min Rain = 0
KMES 191025Z 22004KT 09/02 A2995 RMK A01 T00870016  RH  062%=      5-min Rain = 0
KMES 191030Z 24004KT 08/02 A2995 RMK A01 T00840016  RH  063%=      5-min Rain = 0
KMES 191035Z 24004KT 08/02 A2995 RMK A01 T00820015  RH  064%=      5-min Rain = 0
KMES 191040Z 23005KT 08/01 A2995 RMK A01 T00790014  RH  065%=      5-min Rain = 0
KMES 191045Z 24004KT 08/01 A2995 RMK A01 T00760014  RH  066%=      5-min Rain = 0
KMES 191050Z 25003KT 07/01 A2995 RMK A01 T00740014  RH  067%=      5-min Rain = 0
KMES 191055Z 26002KT 07/01 A2995 RMK A01 T00730013  RH  066%=      5-min Rain = 0
KMES 191100Z 25002KT 07/01 A2995 RMK A01 T00710011  RH  067%=      5-min Rain = 0
KMES 191105Z 29002KT 07/01 A2995 RMK A01 T00650005  RH  066%=      5-min Rain = 0
KMES 191110Z 31001KT 06/M00 A2996 RMK A01 T00571001  RH  067%=      5-min Rain = 0
KMES 191115Z 31002KT 05/00 A2996 RMK A01 T00520002  RH  071%=      5-min Rain = 0
KMES 191120Z 33002KT 05/00 A2995 RMK A01 T00520002  RH  071%=      5-min Rain = 0
KMES 191125Z 35002KT 05/M01 A2995 RMK A01 T00481005  RH  069%=      5-min Rain = 0
KMES 191130Z 00004KT 04/M01 A2995 RMK A01 T00411010  RH  070%=      5-min Rain = 0
KMES 191135Z 36003KT 04/M00 A2995 RMK A01 T00411003  RH  073%=      5-min Rain = 0
KMES 191140Z 00003KT 05/00 A2995 RMK A01 T00490004  RH  073%=      5-min Rain = 0
KMES 191145Z 36003KT 05/00 A2995 RMK A01 T00510003  RH  072%=      5-min Rain = 0
KMES 191150Z 35002KT 05/00 A2995 RMK A01 T00520003  RH  072%=      5-min Rain = 0
KMES 191155Z 35003KT 05/00 A2995 RMK A01 T00520004  RH  072%=      5-min Rain = 0
KMES 191200Z 00003KT 05/00 A2994 RMK A01 T004900-0  RH  071%=      5-min Rain = 0
KMES 191205Z 36002KT 05/M00 A2994 RMK A01 T00451001  RH  073%=      5-min Rain = 0
KMES 191210Z 33002KT 05/01 A2994 RMK A01 T00490006  RH  074%=      5-min Rain = 0
KMES 191215Z 33001KT 05/01 A2994 RMK A01 T00540009  RH  073%=      5-min Rain = 0
KMES 191220Z 35001KT 05/01 A2994 RMK A01 T00540006  RH  072%=      5-min Rain = 0
KMES 191225Z 29001KT 05/00 A2994 RMK A01 T00520004  RH  072%=      5-min Rain = 0
KMES 191230Z 24001KT 05/01 A2993 RMK A01 T00510006  RH  074%=      5-min Rain = 0
KMES 191235Z 23001KT 05/01 A2993 RMK A01 T00530009  RH  074%=      5-min Rain = 0
KMES 191240Z 22001KT 05/00 A2993 RMK A01 T00500004  RH  073%=      5-min Rain = 0
KMES 191245Z 22000KT 04/M00 A2994 RMK A01 T00441003  RH  072%=      5-min Rain = 0
KMES 191250Z 25001KT 04/M00 A2994 RMK A01 T00401002  RH  075%=      5-min Rain = 0
KMES 191255Z 26001KT 04/00 A2994 RMK A01 T00410000  RH  076%=      5-min Rain = 0
KMES 191300Z 27000KT 04/00 A2994 RMK A01 T00410002  RH  077%=      5-min Rain = 0
KMES 191305Z 00000KT 04/00 A2993 RMK A01 T00400000  RH  076%=      5-min Rain = 0
KMES 191310Z 33001KT 04/M01 A2993 RMK A01 T00361006  RH  075%=      5-min Rain = 0
KMES 191315Z 34001KT 03/M01 A2993 RMK A01 T00301012  RH  075%=      5-min Rain = 0
KMES 191320Z 00001KT 03/M01 A2993 RMK A01 T00291011  RH  076%=      5-min Rain = 0
KMES 191325Z 00001KT 03/M01 A2993 RMK A01 T00281012  RH  076%=      5-min Rain = 0
KMES 191330Z 02001KT 03/M01 A2993 RMK A01 T00301008  RH  077%=      5-min Rain = 0
KMES 191335Z 03001KT 03/M01 A2993 RMK A01 T00301010  RH  076%=      5-min Rain = 0
KMES 191340Z 06001KT 03/M01 A2993 RMK A01 T00311009  RH  076%=      5-min Rain = 0
KMES 191345Z 05001KT 04/M00 A2993 RMK A01 T00361003  RH  076%=      5-min Rain = 0
KMES 191350Z 02001KT 04/00 A2993 RMK A01 T00410002  RH  076%=      5-min Rain = 0
KMES 191355Z 01001KT 05/01 A2993 RMK A01 T00470005  RH  076%=      5-min Rain = 0
KMES 191400Z 01002KT 05/01 A2993 RMK A01 T00520009  RH  075%=      5-min Rain = 0
KMES 191405Z 01003KT 06/01 A2993 RMK A01 T00590014  RH  074%=      5-min Rain = 0
KMES 191410Z 02002KT 07/02 A2993 RMK A01 T00710021  RH  072%=      5-min Rain = 0
KMES 191415Z 02002KT 08/02 A2993 RMK A01 T00830023  RH  067%=      5-min Rain = 0
KMES 191420Z 35001KT 09/02 A2994 RMK A01 T00870023  RH  065%=      5-min Rain = 0
KMES 191425Z 32001KT 09/02 A2994 RMK A01 T00900022  RH  063%=      5-min Rain = 0
KMES 191430Z 31001KT 09/02 A2994 RMK A01 T00920023  RH  063%=      5-min Rain = 0
KMES 191435Z 26002KT 10/03 A2995 RMK A01 T01000026  RH  061%=      5-min Rain = 0
KMES 191440Z 24002KT 11/03 A2995 RMK A01 T01060027  RH  059%=      5-min Rain = 0
KMES 191445Z 24002KT 11/03 A2995 RMK A01 T01100030  RH  059%=      5-min Rain = 0
KMES 191450Z 24001KT 12/03 A2995 RMK A01 T01150031  RH  057%=      5-min Rain = 0
KMES 191455Z 22001KT 12/03 A2995 RMK A01 T01190030  RH  055%=      5-min Rain = 0
KMES 191500Z 21001KT 12/03 A2995 RMK A01 T01220030  RH  054%=      5-min Rain = 0
KMES 191505Z 18000KT 13/03 A2995 RMK A01 T01260030  RH  053%=      5-min Rain = 0
KMES 191510Z 25001KT 13/03 A2995 RMK A01 T01280030  RH  052%=      5-min Rain = 0
KMES 191515Z 19001KT 13/03 A2995 RMK A01 T01290030  RH  052%=      5-min Rain = 0
KMES 191520Z 20002KT 13/03 A2995 RMK A01 T01310029  RH  051%=      5-min Rain = 0
KMES 191525Z 18001KT 13/03 A2995 RMK A01 T01340029  RH  050%=      5-min Rain = 0
KMES 191530Z 18002KT 14/03 A2995 RMK A01 T01370029  RH  049%=      5-min Rain = 0
KMES 191535Z 20003KT 14/03 A2996 RMK A01 T01390029  RH  048%=      5-min Rain = 0
KMES 191540Z 21003KT 14/03 A2996 RMK A01 T01400029  RH  048%=      5-min Rain = 0
KMES 191545Z 19002KT 14/03 A2996 RMK A01 T01400029  RH  048%=      5-min Rain = 0
KMES 191550Z 14003KT 15/03 A2996 RMK A01 T01450027  RH  046%=      5-min Rain = 0
KMES 191555Z 18002KT 15/03 A2995 RMK A01 T01480028  RH  045%=      5-min Rain = 0
KMES 191600Z 19002KT 15/03 A2995 RMK A01 T01520029  RH  045%=      5-min Rain = 0
KMES 191605Z 17002KT 15/03 A2995 RMK A01 T01540029  RH  044%=      5-min Rain = 0
KMES 191610Z 20003KT 16/03 A2995 RMK A01 T01560027  RH  043%=      5-min Rain = 0
KMES 191615Z 20003KT 16/03 A2995 RMK A01 T01560026  RH  042%=      5-min Rain = 0
KMES 191620Z 20004KT 16/02 A2995 RMK A01 T01570023  RH  041%=      5-min Rain = 0
KMES 191625Z 17004KT 16/02 A2995 RMK A01 T01600024  RH  041%=      5-min Rain = 0
KMES 191630Z 17003KT 17/03 A2995 RMK A01 T01650025  RH  040%=      5-min Rain = 0
KMES 191635Z 15001KT 17/03 A2994 RMK A01 T01730027  RH  038%=      5-min Rain = 0
KMES 191640Z 17003KT 18/02 A2994 RMK A01 T01790021  RH  035%=      5-min Rain = 0
KMES 191645Z 18003KT 18/02 A2994 RMK A01 T01780020  RH  035%=      5-min Rain = 0
KMES 191650Z 17004KT 18/02 A2994 RMK A01 T01790017  RH  034%=      5-min Rain = 0
KMES 191655Z 16004KT 18/02 A2994 RMK A01 T01830017  RH  033%=      5-min Rain = 0
KMES 191700Z 15003KT 19/02 A2993 RMK A01 T01850017  RH  033%=      5-min Rain = 0
KMES 191705Z 17005KT 19/02 A2993 RMK A01 T01870015  RH  032%=      5-min Rain = 0
KMES 191710Z 15005KT 19/02 A2993 RMK A01 T01910016  RH  031%=      5-min Rain = 0
KMES 191715Z 15007KT 20/01 A2993 RMK A01 T01950013  RH  030%=      5-min Rain = 0
KMES 191720Z 16007KT 20/01 A2993 RMK A01 T01970012  RH  030%=      5-min Rain = 0
KMES 191725Z 15006KT 20/01 A2992 RMK A01 T01990014  RH  029%=      5-min Rain = 0
KMES 191730Z 14007KT 20/02 A2992 RMK A01 T02040015  RH  029%=      5-min Rain = 0
KMES 191735Z 13007KT 21/02 A2992 RMK A01 T02050015  RH  029%=      5-min Rain = 0
KMES 191740Z 12007KT 21/02 A2991 RMK A01 T02050016  RH  029%=      5-min Rain = 0
KMES 191745Z 14009KT 21/02 A2991 RMK A01 T02050015  RH  029%=      5-min Rain = 0
KMES 191750Z 14009KT 20/01 A2991 RMK A01 T02020014  RH  029%=      5-min Rain = 0
KMES 191755Z 13006G11KT 20/02 A2991 RMK A01 T02010015  RH  029%=      5-min Rain = 0
KMES 191800Z 13008KT 21/02 A299 RMK A01 T02050016  RH  029%=      5-min Rain = 0
KMES 191805Z 14009KT 21/02 A299 RMK A01 T02060015  RH  028%=      5-min Rain = 0
KMES 191810Z 12009G14KT 21/02 A2989 RMK A01 T02060016  RH  029%=      5-min Rain = 0
KMES 191815Z 13011G16KT 21/02 A2988 RMK A01 T02090016  RH  028%=      5-min Rain = 0
KMES 191820Z 13011KT 22/02 A2988 RMK A01 T02150017  RH  027%=      5-min Rain = 0
KMES 191825Z 14011KT 22/02 A2988 RMK A01 T02170016  RH  027%=      5-min Rain = 0
KMES 191830Z 14011KT 22/01 A2988 RMK A01 T02230014  RH  026%=      5-min Rain = 0
KMES 191835Z 14014KT 23/01 A2987 RMK A01 T02250011  RH  025%=      5-min Rain = 0
KMES 191840Z 14012G17KT 23/01 A2987 RMK A01 T02250012  RH  025%=      5-min Rain = 0
KMES 191845Z 14012KT 23/01 A2987 RMK A01 T02290011  RH  024%=      5-min Rain = 0
KMES 191850Z 14012G18KT 23/01 A2986 RMK A01 T02310012  RH  024%=      5-min Rain = 0
KMES 191855Z 14011G16KT 23/01 A2986 RMK A01 T02320012  RH  024%=      5-min Rain = 0
KMES 191900Z 15011KT 23/01 A2986 RMK A01 T02330011  RH  023%=      5-min Rain = 0
KMES 191905Z 15012G17KT 23/01 A2985 RMK A01 T02340009  RH  023%=      5-min Rain = 0
KMES 191910Z 15013G19KT 24/01 A2985 RMK A01 T02360009  RH  023%=      5-min Rain = 0
KMES 191915Z 16012G20KT 24/01 A2985 RMK A01 T02350010  RH  023%=      5-min Rain = 0
KMES 191920Z 15012G18KT 24/01 A2985 RMK A01 T02360010  RH  023%=      5-min Rain = 0
KMES 191925Z 15011G18KT 24/01 A2984 RMK A01 T02390011  RH  023%=      5-min Rain = 0
KMES 191930Z 15011G17KT 24/01 A2984 RMK A01 T02370012  RH  023%=      5-min Rain = 0
KMES 191935Z 15011G17KT 24/01 A2983 RMK A01 T02350012  RH  023%=      5-min Rain = 0
KMES 191940Z 15014KT 23/01 A2983 RMK A01 T02340009  RH  023%=      5-min Rain = 0
KMES 191945Z 15011G18KT 24/01 A2983 RMK A01 T02370011  RH  023%=      5-min Rain = 0
KMES 191950Z 15013G18KT 24/01 A2983 RMK A01 T02400012  RH  023%=      5-min Rain = 0
KMES 191955Z 15012G17KT 24/01 A2982 RMK A01 T02430012  RH  022%=      5-min Rain = 0
KMES 192000Z 16012G17KT 24/01 A2982 RMK A01 T02440011  RH  022%=      5-min Rain = 0
KMES 192005Z 16013G19KT 25/01 A2982 RMK A01 T02460013  RH  022%=      5-min Rain = 0
KMES 192010Z 15011KT 25/01 A2981 RMK A01 T02470013  RH  022%=      5-min Rain = 0
KMES 192015Z 15012G17KT 25/01 A2981 RMK A01 T02510011  RH  021%=      5-min Rain = 0
KMES 192020Z 16014G21KT 25/01 A2981 RMK A01 T02520012  RH  021%=      5-min Rain = 0
KMES 192025Z 17012KT 25/01 A298 RMK A01 T02510014  RH  022%=      5-min Rain = 0
KMES 192030Z 17011G16KT 25/02 A298 RMK A01 T02540015  RH  021%=      5-min Rain = 0
KMES 192035Z 15012G17KT 26/02 A298 RMK A01 T02550017  RH  021%=      5-min Rain = 0
KMES 192040Z 15012G18KT 26/02 A298 RMK A01 T02570017  RH  021%=      5-min Rain = 0
KMES 192045Z 16012G19KT 26/01 A2979 RMK A01 T02570014  RH  021%=      5-min Rain = 0
KMES 192050Z 16012G18KT 26/01 A2979 RMK A01 T02590011  RH  020%=      5-min Rain = 0
KMES 192055Z 18013G19KT 26/00 A2979 RMK A01 T02600002  RH  019%=      5-min Rain = 0
KMES 192100Z 17012G17KT 26/00 A2979 RMK A01 T02610003  RH  019%=      5-min Rain = 0
KMES 192105Z 17015G21KT 26/00 A2979 RMK A01 T02600000  RH  018%=      5-min Rain = 0
KMES 192110Z 17013G20KT 26/M00 A2978 RMK A01 T02581001  RH  018%=      5-min Rain = 0
KMES 192115Z 17015G20KT 26/00 A2978 RMK A01 T02600001  RH  018%=      5-min Rain = 0
KMES 192120Z 17014G22KT 26/00 A2978 RMK A01 T02610002  RH  019%=      5-min Rain = 0
KMES 192125Z 18011G19KT 26/00 A2978 RMK A01 T02610003  RH  019%=      5-min Rain = 0
KMES 192130Z 17012G18KT 26/00 A2978 RMK A01 T02620004  RH  019%=      5-min Rain = 0
KMES 192135Z 16013G20KT 26/01 A2978 RMK A01 T02610006  RH  019%=      5-min Rain = 0
KMES 192140Z 18014G20KT 26/01 A2978 RMK A01 T02600005  RH  019%=      5-min Rain = 0
KMES 192145Z 17012G19KT 26/01 A2978 RMK A01 T02610007  RH  019%=      5-min Rain = 0
KMES 192150Z 18009G17KT 26/01 A2978 RMK A01 T02630007  RH  019%=      5-min Rain = 0
KMES 192155Z 17012G20KT 26/01 A2978 RMK A01 T02620009  RH  019%=      5-min Rain = 0
KMES 192200Z 18012G20KT 26/01 A2978 RMK A01 T02610009  RH  020%=      5-min Rain = 0
KMES 192205Z 17013G20KT 26/01 A2977 RMK A01 T02600011  RH  020%=      5-min Rain = 0
KMES 192210Z 17015G23KT 26/01 A2977 RMK A01 T02570011  RH  020%=      5-min Rain = 0
KMES 192215Z 17014G20KT 26/01 A2978 RMK A01 T02560013  RH  021%=      5-min Rain = 0
KMES 192220Z 16012G20KT 26/01 A2977 RMK A01 T02560013  RH  021%=      5-min Rain = 0
KMES 192225Z 16012G19KT 26/01 A2977 RMK A01 T02550014  RH  021%=      5-min Rain = 0
KMES 192230Z 17010G16KT 26/01 A2977 RMK A01 T02550014  RH  021%=      5-min Rain = 0
KMES 192235Z 17009G14KT 25/01 A2977 RMK A01 T02540013  RH  021%=      5-min Rain = 0
KMES 192240Z 17011G16KT 25/01 A2977 RMK A01 T02530013  RH  021%=      5-min Rain = 0
KMES 192245Z 17010G17KT 25/01 A2977 RMK A01 T02520013  RH  021%=      5-min Rain = 0
KMES 192250Z 17009G14KT 25/01 A2977 RMK A01 T02510013  RH  021%=      5-min Rain = 0
KMES 192255Z 17010G17KT 25/01 A2977 RMK A01 T02490011  RH  021%=      5-min Rain = 0
KMES 192300Z 17008KT 25/01 A2977 RMK A01 T02470011  RH  022%=      5-min Rain = 0
KMES 192305Z 17010G16KT 25/01 A2977 RMK A01 T02450011  RH  022%=      5-min Rain = 0
KMES 192310Z 17010KT 24/01 A2977 RMK A01 T02440011  RH  022%=      5-min Rain = 0
KMES 192315Z 17009KT 24/01 A2977 RMK A01 T02420010  RH  022%=      5-min Rain = 0
KMES 192320Z 17009KT 24/01 A2977 RMK A01 T02390010  RH  022%=      5-min Rain = 0
KMES 192325Z 16007KT 24/01 A2977 RMK A01 T02360011  RH  023%=      5-min Rain = 0
KMES 192330Z 16006KT 23/01 A2978 RMK A01 T02310012  RH  024%=      5-min Rain = 0
KMES 192335Z 16006KT 23/02 A2978 RMK A01 T02280015  RH  025%=      5-min Rain = 0
KMES 192340Z 16007KT 23/02 A2978 RMK A01 T02260018  RH  026%=      5-min Rain = 0
KMES 192345Z 16007KT 22/02 A2978 RMK A01 T02230020  RH  027%=      5-min Rain = 0
KMES 192350Z 16006KT 22/02 A2978 RMK A01 T02210021  RH  027%=      5-min Rain = 0
KMES 192355Z 16006KT 22/02 A2978 RMK A01 T02180022  RH  028%=      5-min Rain = 0
KMES 200000Z 16007KT 22/02 A2978 RMK A01 T02170023  RH  028%=      5-min Rain = 0
KMES 200005Z 15006KT 22/02 A2978 RMK A01 T02150024  RH  029%=      5-min Rain = 0
KMES 200010Z 15005KT 21/02 A2978 RMK A01 T02130024  RH  029%=      5-min Rain = 0
KMES 200015Z 15005KT 21/02 A2978 RMK A01 T02070023  RH  030%=      5-min Rain = 0
KMES 200020Z 15005KT 20/02 A2979 RMK A01 T02030023  RH  031%=      5-min Rain = 0
KMES 200025Z 15005KT 20/02 A2979 RMK A01 T01980023  RH  032%=      5-min Rain = 0
KMES 200030Z 14004KT 19/02 A2979 RMK A01 T01940023  RH  033%=      5-min Rain = 0
KMES 200035Z 14005KT 19/02 A2979 RMK A01 T01860021  RH  034%=      5-min Rain = 0
KMES 200040Z 13006KT 18/02 A2979 RMK A01 T01770023  RH  036%=      5-min Rain = 0
KMES 200045Z 13005KT 17/03 A2979 RMK A01 T01720028  RH  039%=      5-min Rain = 0
KMES 200050Z 13004KT 17/03 A2979 RMK A01 T01700032  RH  040%=      5-min Rain = 0
KMES 200055Z 13004KT 17/04 A2979 RMK A01 T01700035  RH  041%=      5-min Rain = 0
KMES 200100Z 14003KT 17/04 A2979 RMK A01 T01720039  RH  042%=      5-min Rain = 0
KMES 200105Z 13002KT 17/04 A2979 RMK A01 T01700039  RH  042%=      5-min Rain = 0
KMES 200110Z 12003KT 17/04 A2979 RMK A01 T01680041  RH  044%=      5-min Rain = 0
KMES 200115Z 13004KT 17/04 A2979 RMK A01 T01670043  RH  044%=      5-min Rain = 0
KMES 200120Z 12004KT 16/04 A2979 RMK A01 T01640043  RH  045%=      5-min Rain = 0
KMES 200125Z 12004KT 16/04 A2979 RMK A01 T01610044  RH  047%=      5-min Rain = 0
KMES 200130Z 12005KT 16/05 A2979 RMK A01 T01590045  RH  048%=      5-min Rain = 0
KMES 200135Z 12006KT 16/05 A2979 RMK A01 T01590046  RH  048%=      5-min Rain = 0
KMES 200140Z 13005KT 16/05 A2979 RMK A01 T01590046  RH  048%=      5-min Rain = 0
KMES 200145Z 12005KT 16/05 A2979 RMK A01 T01580045  RH  048%=      5-min Rain = 0
KMES 200150Z 12005KT 16/05 A2979 RMK A01 T01550045  RH  049%=      5-min Rain = 0
KMES 200155Z 12005KT 15/04 A2979 RMK A01 T01520043  RH  049%=      5-min Rain = 0
KMES 200200Z 13005KT 15/04 A2979 RMK A01 T01500043  RH  050%=      5-min Rain = 0
KMES 200205Z 13006KT 15/04 A2979 RMK A01 T01500043  RH  050%=      5-min Rain = 0
KMES 200210Z 13006KT 15/04 A2979 RMK A01 T01500043  RH  050%=      5-min Rain = 0
KMES 200215Z 12006KT 15/04 A2979 RMK A01 T01520041  RH  049%=      5-min Rain = 0
KMES 200220Z 13005KT 15/04 A2979 RMK A01 T01520040  RH  048%=      5-min Rain = 0
KMES 200225Z 12005KT 15/04 A2979 RMK A01 T01510039  RH  048%=      5-min Rain = 0
KMES 200230Z 12006KT 15/04 A2979 RMK A01 T01500038  RH  048%=      5-min Rain = 0
KMES 200235Z 12006KT 15/04 A2979 RMK A01 T01510038  RH  048%=      5-min Rain = 0
KMES 200240Z 12006KT 15/04 A2979 RMK A01 T01500037  RH  047%=      5-min Rain = 0
KMES 200245Z 12006KT 15/04 A2979 RMK A01 T01500036  RH  047%=      5-min Rain = 0
KMES 200250Z 12005KT 15/04 A2979 RMK A01 T01480035  RH  047%=      5-min Rain = 0
KMES 200255Z 13004KT 15/03 A2979 RMK A01 T01460034  RH  048%=      5-min Rain = 0
KMES 200300Z 12004KT 14/03 A2979 RMK A01 T01440033  RH  048%=      5-min Rain = 0
KMES 200305Z 12004KT 14/03 A2979 RMK A01 T01430032  RH  048%=      5-min Rain = 0
KMES 200310Z 12004KT 14/03 A2979 RMK A01 T01420032  RH  048%=      5-min Rain = 0
KMES 200315Z 12005KT 14/03 A2979 RMK A01 T01400031  RH  049%=      5-min Rain = 0
KMES 200320Z 12004KT 14/03 A298 RMK A01 T01370030  RH  049%=      5-min Rain = 0
KMES 200325Z 11003KT 14/03 A298 RMK A01 T01360031  RH  050%=      5-min Rain = 0
KMES 200330Z 11002KT 14/03 A298 RMK A01 T01350030  RH  050%=      5-min Rain = 0
KMES 200335Z 08001KT 13/03 A298 RMK A01 T01340030  RH  050%=      5-min Rain = 0
KMES 200340Z 06001KT 13/03 A298 RMK A01 T01300026  RH  050%=      5-min Rain = 0
KMES 200345Z 03001KT 12/02 A298 RMK A01 T01240024  RH  051%=      5-min Rain = 0
KMES 200350Z 36002KT 12/02 A298 RMK A01 T01190022  RH  052%=      5-min Rain = 0
KMES 200355Z 36001KT 12/02 A298 RMK A01 T01160021  RH  053%=      5-min Rain = 0
KMES 200400Z 00001KT 12/02 A298 RMK A01 T01170023  RH  053%=      5-min Rain = 0
KMES 200405Z 01002KT 12/02 A298 RMK A01 T01160021  RH  053%=      5-min Rain = 0
KMES 200410Z 01002KT 11/02 A298 RMK A01 T01130020  RH  053%=      5-min Rain = 0
KMES 200415Z 02002KT 11/02 A298 RMK A01 T01090016  RH  054%=      5-min Rain = 0
KMES 200420Z 03002KT 10/02 A298 RMK A01 T01040017  RH  056%=      5-min Rain = 0
KMES 200425Z 03002KT 10/02 A298 RMK A01 T01040019  RH  056%=      5-min Rain = 0
KMES 200430Z 36002KT 11/02 A298 RMK A01 T01050021  RH  057%=      5-min Rain = 0
KMES 200435Z 02002KT 11/02 A2979 RMK A01 T01080023  RH  056%=      5-min Rain = 0
KMES 200440Z 02002KT 11/02 A2979 RMK A01 T01070022  RH  056%=      5-min Rain = 0
KMES 200445Z 03002KT 11/02 A2979 RMK A01 T01070022  RH  057%=      5-min Rain = 0
KMES 200450Z 04002KT 11/03 A2979 RMK A01 T01080025  RH  058%=      5-min Rain = 0
KMES 200455Z 04001KT 11/03 A2979 RMK A01 T01100026  RH  057%=      5-min Rain = 0
KMES 200500Z 05001KT 11/03 A2979 RMK A01 T01090025  RH  057%=      5-min Rain = 0
KMES 200505Z 07001KT 11/03 A2979 RMK A01 T01070025  RH  058%=      5-min Rain = 0
KMES 200510Z 07001KT 11/03 A2979 RMK A01 T01060026  RH  059%=      5-min Rain = 0
KMES 200515Z 09001KT 11/03 A2979 RMK A01 T01050027  RH  059%=      5-min Rain = 0
KMES 200520Z 10003KT 11/03 A2979 RMK A01 T01060026  RH  059%=      5-min Rain = 0
KMES 200525Z 09004KT 10/01 A2979 RMK A01 T01020014  RH  055%=      5-min Rain = 0
KMES 200530Z 09003KT 10/02 A2979 RMK A01 T00980018  RH  058%=      5-min Rain = 0
KMES 200535Z 07002KT 10/03 A2979 RMK A01 T01020028  RH  061%=      5-min Rain = 0
KMES 200540Z 05000KT 11/03 A2979 RMK A01 T01080031  RH  060%=      5-min Rain = 0
KMES 200545Z 00001KT 11/03 A2979 RMK A01 T01090029  RH  059%=      5-min Rain = 0
KMES 200550Z 00001KT 11/03 A2979 RMK A01 T01090032  RH  060%=      5-min Rain = 0
KMES 200555Z 05001KT 11/04 A2979 RMK A01 T01140037  RH  060%=      5-min Rain = 0

Page generated in 0.0089 seconds.